createdAt,value
2017-02-08T00:00:49.508Z,22.31
2017-02-08T00:01:49.914Z,22.13
2017-02-08T00:02:49.920Z,22.22
2017-02-08T00:03:49.582Z,22.23
2017-02-08T00:04:49.932Z,22.23
2017-02-08T00:05:49.937Z,21.94
2017-02-08T00:06:49.943Z,21.84
2017-02-08T00:07:49.505Z,22.03
2017-02-08T00:08:50.757Z,22.03
2017-02-08T00:09:49.964Z,21.94
2017-02-08T00:10:49.920Z,21.94
2017-02-08T00:11:49.972Z,21.92
2017-02-08T00:12:49.934Z,22.22
2017-02-08T00:13:49.995Z,21.83
2017-02-08T00:14:49.993Z,22.13
2017-02-08T00:15:50.001Z,22.23
2017-02-08T00:16:50.003Z,22.13
2017-02-08T00:17:49.963Z,21.94
2017-02-08T00:18:50.072Z,21.94
2017-02-08T00:19:51.143Z,22.13
2017-02-08T00:20:49.983Z,21.92
2017-02-08T00:21:50.040Z,21.92
2017-02-08T00:22:50.046Z,21.94
2017-02-08T00:23:50.051Z,21.94
2017-02-08T00:24:50.057Z,22.22
2017-02-08T00:25:50.092Z,21.92
2017-02-08T00:26:50.021Z,21.92
2017-02-08T00:27:50.076Z,22.13
2017-02-08T00:28:50.085Z,22.13
2017-02-08T00:29:49.693Z,22.13
2017-02-08T00:30:50.145Z,22.23
2017-02-08T00:31:50.005Z,21.94
2017-02-08T00:32:50.108Z,22.33
2017-02-08T00:33:50.115Z,22.13
2017-02-08T00:34:49.779Z,22.03
2017-02-08T00:35:50.127Z,22.03
2017-02-08T00:36:50.085Z,22.03
2017-02-08T00:37:50.140Z,22.33
2017-02-08T00:38:50.198Z,21.92
2017-02-08T00:39:50.007Z,22.13
2017-02-08T00:40:49.766Z,21.94
2017-02-08T00:41:50.165Z,21.94
2017-02-08T00:42:50.122Z,21.94
2017-02-08T00:43:50.228Z,21.94
2017-02-08T00:44:50.233Z,22.03
2017-02-08T00:45:49.744Z,22.13
2017-02-08T00:46:50.197Z,21.92
2017-02-08T00:47:50.204Z,21.83
2017-02-08T00:48:50.159Z,22.12
2017-02-08T00:49:50.215Z,22.03
2017-02-08T00:50:51.524Z,22.03
2017-02-08T00:51:49.835Z,21.94
2017-02-08T00:52:50.233Z,21.92
2017-02-08T00:53:50.293Z,22.03
2017-02-08T00:54:50.245Z,22.12
2017-02-08T00:55:50.252Z,22.12
2017-02-08T00:56:50.213Z,21.92
2017-02-08T00:57:49.872Z,21.94
2017-02-08T00:58:50.223Z,21.92
2017-02-08T00:59:50.278Z,22.03
2017-02-08T01:00:50.236Z,22.12
2017-02-08T01:01:51.176Z,22.02
2017-02-08T01:02:50.348Z,21.94
2017-02-08T01:03:50.953Z,22.13
2017-02-08T01:04:50.259Z,22.31
2017-02-08T01:05:50.315Z,22.22
2017-02-08T01:06:50.373Z,21.92
2017-02-08T01:07:50.328Z,22.02
2017-02-08T01:08:50.284Z,21.92
2017-02-08T01:09:50.293Z,22.02
2017-02-08T01:10:50.293Z,22.12
2017-02-08T01:11:50.302Z,22.03
2017-02-08T01:12:51.334Z,22.03
2017-02-08T01:14:04.799Z,21.83
2017-02-08T01:14:51.223Z,22.03
2017-02-08T01:15:50.331Z,22.02
2017-02-08T01:16:50.385Z,22.02
2017-02-08T01:17:50.392Z,21.92
2017-02-08T01:18:50.395Z,22.12
2017-02-08T01:19:50.404Z,22.03
2017-02-08T01:20:50.361Z,22.03
2017-02-08T01:21:50.420Z,21.83
2017-02-08T01:22:50.419Z,22.02
2017-02-08T01:23:50.378Z,21.94
2017-02-08T01:24:50.384Z,21.92
2017-02-08T01:25:50.390Z,21.83
2017-02-08T01:26:50.107Z,21.92
2017-02-08T01:27:50.403Z,21.94
2017-02-08T01:28:50.758Z,21.92
2017-02-08T01:29:50.463Z,21.94
2017-02-08T01:30:50.423Z,21.92
2017-02-08T01:31:50.082Z,22.02
2017-02-08T01:32:50.434Z,21.92
2017-02-08T01:33:50.489Z,22.03
2017-02-08T01:34:50.548Z,22.12
2017-02-08T01:35:50.553Z,22.03
2017-02-08T01:36:50.509Z,21.92
2017-02-08T01:37:50.463Z,21.92
2017-02-08T01:38:50.518Z,21.92
2017-02-08T01:39:50.579Z,21.92
2017-02-08T01:40:50.088Z,21.92
2017-02-08T01:41:50.491Z,22.02
2017-02-08T01:42:50.546Z,21.84
2017-02-08T01:43:50.602Z,22.02
2017-02-08T01:44:50.510Z,21.83
2017-02-08T01:45:50.713Z,21.92
2017-02-08T01:46:50.571Z,22.02
2017-02-08T01:47:50.527Z,22.12
2017-02-08T01:48:50.138Z,21.92
2017-02-08T01:49:50.890Z,22.02
2017-02-08T01:50:50.593Z,21.92
2017-02-08T01:51:50.603Z,22.02
2017-02-08T01:52:50.609Z,22.31
2017-02-08T01:53:50.170Z,22.12
2017-02-08T01:54:50.571Z,22.02
2017-02-08T01:55:50.574Z,22.13
2017-02-08T01:56:50.887Z,22.02
2017-02-08T01:57:50.637Z,22.02
2017-02-08T01:58:50.697Z,22.22
2017-02-08T01:59:50.209Z,22.12
2017-02-08T02:00:50.657Z,22.12
2017-02-08T02:01:50.668Z,22.12
2017-02-08T02:02:50.621Z,22.02
2017-02-08T02:03:50.636Z,22.12
2017-02-08T02:04:50.684Z,22.13
2017-02-08T02:05:50.693Z,22.12
2017-02-08T02:06:50.696Z,22.13
2017-02-08T02:07:51.208Z,22.23
2017-02-08T02:08:50.706Z,22.12
2017-02-08T02:09:50.663Z,22.22
2017-02-08T02:10:50.673Z,22.13
2017-02-08T02:11:50.678Z,22.13
2017-02-08T02:12:50.786Z,21.92
2017-02-08T02:13:50.787Z,22.12
2017-02-08T02:14:50.743Z,22.12
2017-02-08T02:15:50.804Z,22.22
2017-02-08T02:16:50.758Z,22.13
2017-02-08T02:17:50.761Z,22.13
2017-02-08T02:18:51.621Z,22.02
2017-02-08T02:19:50.726Z,22.12
2017-02-08T02:20:50.883Z,21.92
2017-02-08T02:21:50.839Z,22.12
2017-02-08T02:22:50.847Z,22.02
2017-02-08T02:23:50.799Z,22.12
2017-02-08T02:24:50.806Z,21.94
2017-02-08T02:25:50.764Z,21.92
2017-02-08T02:26:50.770Z,22.13
2017-02-08T02:27:50.827Z,22.12
2017-02-08T02:28:50.832Z,22.12
2017-02-08T02:29:50.888Z,22.13
2017-02-08T02:30:50.894Z,21.92
2017-02-08T02:31:51.652Z,22.13
2017-02-08T02:32:50.859Z,22.12
2017-02-08T02:33:50.816Z,22.13
2017-02-08T02:34:50.819Z,22.13
2017-02-08T02:35:50.480Z,22.03
2017-02-08T02:36:50.883Z,22.12
2017-02-08T02:37:50.888Z,22.12
2017-02-08T02:38:50.844Z,22.02
2017-02-08T02:39:50.900Z,22.12
2017-02-08T02:40:50.857Z,22.02
2017-02-08T02:41:51.165Z,22.12
2017-02-08T02:42:51.768Z,22.12
2017-02-08T02:43:51.180Z,22.03
2017-02-08T02:44:50.885Z,22.02
2017-02-08T02:45:50.937Z,21.92
2017-02-08T02:46:50.962Z,22.22
2017-02-08T02:47:50.953Z,22.02
2017-02-08T02:48:50.959Z,22.02
2017-02-08T02:49:50.965Z,22.12
2017-02-08T02:50:50.575Z,22.23
2017-02-08T02:51:50.979Z,22.12
2017-02-08T02:52:51.034Z,22.02
2017-02-08T02:53:51.842Z,22.12
2017-02-08T02:54:50.601Z,22.12
2017-02-08T02:55:50.953Z,22.12
2017-02-08T02:56:50.959Z,22.13
2017-02-08T02:57:50.569Z,22.13
2017-02-08T02:58:51.021Z,22.02
2017-02-08T02:59:50.583Z,21.94
2017-02-08T03:00:51.084Z,22.02
2017-02-08T03:01:51.142Z,21.83
2017-02-08T03:02:51.096Z,22.12
2017-02-08T03:03:50.709Z,22.12
2017-02-08T03:04:52.032Z,22.12
2017-02-08T03:05:51.066Z,22.02
2017-02-08T03:06:51.071Z,22.12
2017-02-08T03:07:51.027Z,22.12
2017-02-08T03:08:51.083Z,22.22
2017-02-08T03:09:51.143Z,22.22
2017-02-08T03:10:51.148Z,22.12
2017-02-08T03:11:51.152Z,22.02
2017-02-08T03:12:51.159Z,22.12
2017-02-08T03:13:51.315Z,22.12
2017-02-08T03:14:50.677Z,22.12
2017-02-08T03:15:51.376Z,22.13
2017-02-08T03:16:51.187Z,22.12
2017-02-08T03:17:51.092Z,22.12
2017-02-08T03:18:51.146Z,22.02
2017-02-08T03:19:51.203Z,22.12
2017-02-08T03:20:51.161Z,22.02
2017-02-08T03:21:51.166Z,22.02
2017-02-08T03:22:51.222Z,22.02
2017-02-08T03:23:51.128Z,22.12
2017-02-08T03:24:51.833Z,21.83
2017-02-08T03:25:51.192Z,22.02
2017-02-08T03:26:51.196Z,21.64
2017-02-08T03:27:51.108Z,21.75
2017-02-08T03:28:51.210Z,21.73
2017-02-08T03:29:51.216Z,21.75
2017-02-08T03:30:51.174Z,21.65
2017-02-08T03:31:50.832Z,21.84
2017-02-08T03:32:51.234Z,21.84
2017-02-08T03:33:51.191Z,21.92
2017-02-08T03:34:51.298Z,22.03
2017-02-08T03:35:52.204Z,21.75
2017-02-08T03:36:51.214Z,22.03
2017-02-08T03:37:51.522Z,22.23
2017-02-08T03:38:51.222Z,21.84
2017-02-08T03:39:51.280Z,21.75
2017-02-08T03:40:50.888Z,21.84
2017-02-08T03:41:50.944Z,21.83
2017-02-08T03:42:51.299Z,21.65
2017-02-08T03:43:51.356Z,21.55
2017-02-08T03:44:51.563Z,21.65
2017-02-08T03:45:51.319Z,21.45
2017-02-08T03:46:52.076Z,21.55
2017-02-08T03:47:50.982Z,21.65
2017-02-08T03:48:51.934Z,21.45
2017-02-08T03:49:51.292Z,21.45
2017-02-08T03:50:51.348Z,21.75
2017-02-08T03:51:51.007Z,21.75
2017-02-08T03:52:50.968Z,21.64
2017-02-08T03:53:51.421Z,21.65
2017-02-08T03:54:50.928Z,21.75
2017-02-08T03:55:51.378Z,21.65
2017-02-08T03:56:51.388Z,21.94
2017-02-08T03:57:50.997Z,22.02
2017-02-08T03:58:51.353Z,21.64
2017-02-08T03:59:52.410Z,22.03
2017-02-08T04:00:51.364Z,21.94
2017-02-08T04:01:51.370Z,21.75
2017-02-08T04:02:51.425Z,21.83
2017-02-08T04:03:51.431Z,21.75
2017-02-08T04:04:51.489Z,21.65
2017-02-08T04:05:51.443Z,21.45
2017-02-08T04:06:51.652Z,21.75
2017-02-08T04:07:51.458Z,21.55
2017-02-08T04:08:51.516Z,21.64
2017-02-08T04:09:51.124Z,21.83
2017-02-08T04:10:51.439Z,21.73
2017-02-08T04:11:51.036Z,21.45
2017-02-08T04:12:51.540Z,21.45
2017-02-08T04:13:51.544Z,21.65
2017-02-08T04:14:51.059Z,21.75
2017-02-08T04:15:51.558Z,21.75
2017-02-08T04:16:51.115Z,21.55
2017-02-08T04:17:52.121Z,21.65
2017-02-08T04:18:51.476Z,21.55
2017-02-08T04:19:51.483Z,21.45
2017-02-08T04:20:51.489Z,21.65
2017-02-08T04:21:51.204Z,21.65
2017-02-08T04:22:51.551Z,21.75
2017-02-08T04:23:51.513Z,21.65
2017-02-08T04:24:51.567Z,21.55
2017-02-08T04:25:51.586Z,21.75
2017-02-08T04:26:51.563Z,21.65
2017-02-08T04:27:51.587Z,21.65
2017-02-08T04:28:52.747Z,21.65
2017-02-08T04:29:51.205Z,21.45
2017-02-08T04:30:52.006Z,21.45
2017-02-08T04:31:51.612Z,21.65
2017-02-08T04:32:51.617Z,21.65
2017-02-08T04:33:51.576Z,21.65
2017-02-08T04:34:51.579Z,21.65
2017-02-08T04:35:51.589Z,21.65
2017-02-08T04:36:51.891Z,21.45
2017-02-08T04:37:51.597Z,21.45
2017-02-08T04:38:51.604Z,21.55
2017-02-08T04:39:52.509Z,21.45
2017-02-08T04:40:51.668Z,21.45
2017-02-08T04:41:52.325Z,21.55
2017-02-08T04:42:51.630Z,21.55
2017-02-08T04:43:51.686Z,21.45
2017-02-08T04:44:51.295Z,21.55
2017-02-08T04:45:51.304Z,21.75
2017-02-08T04:46:51.706Z,21.54
2017-02-08T04:47:51.664Z,21.45
2017-02-08T04:48:51.374Z,21.65
2017-02-08T04:49:51.676Z,21.65
2017-02-08T04:50:52.667Z,21.84
2017-02-08T04:51:51.686Z,21.55
2017-02-08T04:52:51.312Z,21.55
2017-02-08T04:53:51.699Z,21.65
2017-02-08T04:54:51.757Z,21.45
2017-02-08T04:55:51.714Z,21.55
2017-02-08T04:56:51.720Z,21.55
2017-02-08T04:57:51.727Z,21.65
2017-02-08T04:58:51.731Z,21.45
2017-02-08T04:59:51.788Z,21.55
2017-02-08T05:00:51.846Z,21.55
2017-02-08T05:01:51.803Z,21.65
2017-02-08T05:02:51.859Z,21.36
2017-02-08T05:03:52.817Z,21.65
2017-02-08T05:04:51.819Z,21.75
2017-02-08T05:05:51.779Z,21.73
2017-02-08T05:06:51.882Z,21.65
2017-02-08T05:07:51.838Z,21.65
2017-02-08T05:08:51.844Z,21.35
2017-02-08T05:09:51.901Z,21.55
2017-02-08T05:10:51.461Z,21.65
2017-02-08T05:11:51.866Z,21.55
2017-02-08T05:12:51.871Z,21.65
2017-02-08T05:13:51.826Z,21.73
2017-02-08T05:14:51.538Z,21.54
2017-02-08T05:15:51.940Z,21.73
2017-02-08T05:16:51.895Z,21.54
2017-02-08T05:17:51.851Z,21.65
2017-02-08T05:18:51.910Z,21.44
2017-02-08T05:19:51.864Z,21.54
2017-02-08T05:20:51.874Z,21.45
2017-02-08T05:21:51.927Z,21.65
2017-02-08T05:22:51.934Z,21.35
2017-02-08T05:23:52.189Z,21.55
2017-02-08T05:24:51.896Z,21.54
2017-02-08T05:25:51.901Z,21.44
2017-02-08T05:26:52.010Z,21.36
2017-02-08T05:27:52.016Z,21.36
2017-02-08T05:28:51.972Z,21.35
2017-02-08T05:29:51.977Z,21.65
2017-02-08T05:30:51.985Z,21.64
2017-02-08T05:31:51.991Z,21.64
2017-02-08T05:32:52.034Z,21.73
2017-02-08T05:33:52.052Z,21.64
2017-02-08T05:34:52.768Z,21.65
2017-02-08T05:35:51.966Z,21.44
2017-02-08T05:36:51.675Z,21.45
2017-02-08T05:37:51.977Z,21.73
2017-02-08T05:38:51.588Z,21.55
2017-02-08T05:39:52.042Z,21.64
2017-02-08T05:40:52.297Z,21.64
2017-02-08T05:41:52.057Z,21.65
2017-02-08T05:42:52.363Z,21.73
2017-02-08T05:43:52.516Z,21.64
2017-02-08T05:44:52.122Z,21.64
2017-02-08T05:45:53.178Z,21.35
2017-02-08T05:46:52.037Z,21.73
2017-02-08T05:47:52.492Z,21.54
2017-02-08T05:48:52.147Z,21.35
2017-02-08T05:49:52.104Z,21.45
2017-02-08T05:50:51.766Z,21.07
2017-02-08T05:51:52.066Z,21.45
2017-02-08T05:52:51.726Z,21.64
2017-02-08T05:53:52.079Z,21.44
2017-02-08T05:54:52.085Z,21.54
2017-02-08T05:55:52.092Z,21.55
2017-02-08T05:56:52.149Z,21.73
2017-02-08T05:57:52.205Z,21.64
2017-02-08T05:58:53.012Z,21.64
2017-02-08T05:59:52.117Z,21.64
2017-02-08T06:00:52.175Z,21.44
2017-02-08T06:01:52.131Z,21.55
2017-02-08T06:02:52.187Z,21.36
2017-02-08T06:03:51.849Z,21.17
2017-02-08T06:04:52.147Z,21.45
2017-02-08T06:05:52.157Z,21.26
2017-02-08T06:06:52.313Z,21.17
2017-02-08T06:07:52.170Z,21.26
2017-02-08T06:08:52.276Z,21.17
2017-02-08T06:09:53.362Z,21.26
2017-02-08T06:10:52.287Z,21.26
2017-02-08T06:11:52.195Z,21.36
2017-02-08T06:12:52.301Z,21.45
2017-02-08T06:13:52.507Z,21.36
2017-02-08T06:14:52.264Z,21.26
2017-02-08T06:15:52.272Z,21.26
2017-02-08T06:16:52.276Z,21.55
2017-02-08T06:17:52.280Z,21.45
2017-02-08T06:18:52.239Z,21.36
2017-02-08T06:19:52.344Z,21.26
2017-02-08T06:20:52.298Z,21.36
2017-02-08T06:21:52.311Z,21.36
2017-02-08T06:22:52.262Z,21.55
2017-02-08T06:23:52.270Z,21.26
2017-02-08T06:24:52.278Z,21.17
2017-02-08T06:25:52.283Z,21.45
2017-02-08T06:26:52.388Z,21.15
2017-02-08T06:27:52.294Z,21.45
2017-02-08T06:28:52.852Z,21.36
2017-02-08T06:29:52.709Z,21.26
2017-02-08T06:30:52.366Z,21.25
2017-02-08T06:31:52.371Z,21.35
2017-02-08T06:32:52.333Z,21.36
2017-02-08T06:33:52.337Z,21.26
2017-02-08T06:34:51.992Z,21.36
2017-02-08T06:35:52.348Z,21.26
2017-02-08T06:36:52.401Z,21.45
2017-02-08T06:37:52.408Z,21.35
2017-02-08T06:38:52.714Z,21.17
2017-02-08T06:39:52.420Z,21.25
2017-02-08T06:40:53.478Z,21.45
2017-02-08T06:41:52.433Z,21.25
2017-02-08T06:42:52.489Z,21.44
2017-02-08T06:43:52.499Z,21.35
2017-02-08T06:44:52.055Z,21.26
2017-02-08T06:45:52.458Z,21.25
2017-02-08T06:46:52.465Z,21.26
2017-02-08T06:47:52.468Z,21.36
2017-02-08T06:48:52.526Z,21.17
2017-02-08T06:49:52.483Z,21.25
2017-02-08T06:50:52.144Z,21.25
2017-02-08T06:51:53.265Z,21.26
2017-02-08T06:52:52.059Z,21.45
2017-02-08T06:53:53.058Z,21.36
2017-02-08T06:54:52.464Z,21.26
2017-02-08T06:55:52.471Z,21.25
2017-02-08T06:56:52.525Z,20.87
2017-02-08T06:57:52.783Z,21.26
2017-02-08T06:58:52.145Z,20.68
2017-02-08T06:59:52.597Z,21.06
2017-02-08T07:00:52.555Z,21.36
2017-02-08T07:01:52.509Z,20.97
2017-02-08T07:02:52.519Z,21.07
2017-02-08T07:03:52.624Z,20.68
2017-02-08T07:04:52.234Z,20.78
2017-02-08T07:05:52.587Z,21.25
2017-02-08T07:06:52.592Z,21.17
2017-02-08T07:07:52.552Z,21.26
2017-02-08T07:08:52.605Z,20.68
2017-02-08T07:09:52.611Z,20.78
2017-02-08T07:10:52.616Z,20.87
2017-02-08T07:11:52.623Z,20.97
2017-02-08T07:12:52.283Z,21.07
2017-02-08T07:13:52.638Z,20.87
2017-02-08T07:14:52.641Z,20.68
2017-02-08T07:15:52.648Z,21.15
2017-02-08T07:16:52.706Z,20.87
2017-02-08T07:17:52.963Z,20.68
2017-02-08T07:18:52.620Z,20.97
2017-02-08T07:19:52.227Z,20.97
2017-02-08T07:20:52.631Z,20.87
2017-02-08T07:21:52.686Z,21.17
2017-02-08T07:22:52.694Z,21.65
2017-02-08T07:23:52.702Z,21.17
2017-02-08T07:24:52.756Z,21.65
2017-02-08T07:25:52.766Z,21.45
2017-02-08T07:26:52.771Z,21.26
2017-02-08T07:27:52.724Z,21.36
2017-02-08T07:28:52.731Z,21.26
2017-02-08T07:29:52.740Z,20.87
2017-02-08T07:30:52.740Z,21.07
2017-02-08T07:31:52.797Z,20.87
2017-02-08T07:32:52.806Z,20.49
2017-02-08T07:33:52.716Z,20.79
2017-02-08T07:34:52.324Z,20.4
2017-02-08T07:35:53.779Z,20.21
2017-02-08T07:36:52.385Z,19.73
2017-02-08T07:37:53.089Z,19.54
2017-02-08T07:38:52.746Z,20.03
2017-02-08T07:39:52.800Z,19.55
2017-02-08T07:40:52.756Z,19.07
2017-02-08T07:41:52.762Z,19.46
2017-02-08T07:42:52.823Z,19.07
2017-02-08T07:43:53.778Z,18.79
2017-02-08T07:44:52.438Z,18.88
2017-02-08T07:45:52.838Z,18.79
2017-02-08T07:46:52.847Z,18.88
2017-02-08T07:47:52.455Z,18.31
2017-02-08T07:48:53.509Z,18.51
2017-02-08T07:49:52.814Z,18.6
2017-02-08T07:50:52.871Z,18.21
2017-02-08T07:51:52.881Z,18.12
2017-02-08T07:52:52.836Z,18.32
2017-02-08T07:53:52.890Z,18.31
2017-02-08T07:54:52.899Z,18.21
2017-02-08T07:55:52.902Z,18.32
2017-02-08T07:56:52.912Z,18.12
2017-02-08T07:57:52.917Z,18.13
2017-02-08T07:58:52.976Z,18.03
2017-02-08T07:59:53.890Z,17.83
2017-02-08T08:00:52.489Z,17.83
2017-02-08T08:01:52.941Z,18.03
2017-02-08T08:02:52.952Z,18.03
2017-02-08T08:03:52.958Z,18.03
2017-02-08T08:04:52.966Z,18.13
2017-02-08T08:05:52.972Z,18.13
2017-02-08T08:06:52.977Z,18.13
2017-02-08T08:07:52.587Z,18.03
2017-02-08T08:08:53.341Z,18.13
2017-02-08T08:09:52.998Z,17.93
2017-02-08T08:10:52.955Z,17.74
2017-02-08T08:11:52.960Z,18.13
2017-02-08T08:12:52.968Z,18.03
2017-02-08T08:13:52.977Z,17.93
2017-02-08T08:14:53.283Z,18.03
2017-02-08T08:15:52.994Z,18.03
2017-02-08T08:16:53.047Z,18.13
2017-02-08T08:17:53.003Z,17.74
2017-02-08T08:18:53.111Z,17.74
2017-02-08T08:19:53.871Z,18.03
2017-02-08T08:20:53.075Z,17.93
2017-02-08T08:21:53.131Z,18.13
2017-02-08T08:22:53.087Z,18.03
2017-02-08T08:23:52.700Z,18.13
2017-02-08T08:24:53.153Z,18.22
2017-02-08T08:25:53.159Z,17.74
2017-02-08T08:26:53.066Z,18.22
2017-02-08T08:27:53.172Z,17.93
2017-02-08T08:28:53.129Z,18.13
2017-02-08T08:29:53.186Z,17.74
2017-02-08T08:30:54.045Z,17.83
2017-02-08T08:31:53.150Z,17.55
2017-02-08T08:32:53.759Z,18.22
2017-02-08T08:33:53.115Z,17.74
2017-02-08T08:34:53.121Z,18.13
2017-02-08T08:35:53.229Z,17.74
2017-02-08T08:36:53.135Z,17.84
2017-02-08T08:37:52.747Z,17.83
2017-02-08T08:38:53.201Z,18.13
2017-02-08T08:39:53.407Z,18.13
2017-02-08T08:40:52.819Z,17.93
2017-02-08T08:41:53.272Z,18.03
2017-02-08T08:42:53.181Z,17.93
2017-02-08T08:43:54.422Z,17.93
2017-02-08T08:44:53.247Z,18.13
2017-02-08T08:45:53.258Z,18.03
2017-02-08T08:46:53.311Z,18.03
2017-02-08T08:47:53.266Z,18.22
2017-02-08T08:48:53.223Z,17.93
2017-02-08T08:49:52.885Z,17.93
2017-02-08T08:50:53.891Z,17.93
2017-02-08T08:51:53.297Z,17.93
2017-02-08T08:52:53.352Z,17.93
2017-02-08T08:53:53.361Z,18.03
2017-02-08T08:54:53.316Z,17.93
2017-02-08T08:55:53.377Z,17.93
2017-02-08T08:56:53.334Z,17.83
2017-02-08T08:57:53.303Z,18.03
2017-02-08T08:58:53.349Z,18.03
2017-02-08T08:59:53.357Z,17.93
2017-02-08T09:00:53.364Z,18.03
2017-02-08T09:01:53.879Z,17.83
2017-02-08T09:02:52.980Z,18.13
2017-02-08T09:03:53.538Z,18.13
2017-02-08T09:04:53.341Z,17.93
2017-02-08T09:05:53.398Z,18.13
2017-02-08T09:06:53.458Z,18.03
2017-02-08T09:07:53.463Z,18.13
2017-02-08T09:08:53.421Z,18.22
2017-02-08T09:09:53.380Z,17.64
2017-02-08T09:10:53.466Z,18.13
2017-02-08T09:11:53.400Z,18.03
2017-02-08T09:12:54.243Z,18.13
2017-02-08T09:13:53.459Z,18.13
2017-02-08T09:14:54.017Z,18.03
2017-02-08T09:15:53.474Z,18.03
2017-02-08T09:16:53.431Z,17.93
2017-02-08T09:17:53.487Z,18.03
2017-02-08T09:18:53.497Z,18.03
2017-02-08T09:19:53.502Z,17.64
2017-02-08T09:20:53.519Z,17.74
2017-02-08T09:21:53.517Z,17.93
2017-02-08T09:22:53.828Z,18.13
2017-02-08T09:23:53.495Z,18.03
2017-02-08T09:24:53.541Z,17.64
2017-02-08T09:25:54.550Z,17.74
2017-02-08T09:26:53.556Z,17.93
2017-02-08T09:27:53.565Z,18.13
2017-02-08T09:28:53.226Z,17.83
2017-02-08T09:29:53.679Z,17.74
2017-02-08T09:30:53.535Z,17.94
2017-02-08T09:31:53.591Z,17.54
2017-02-08T09:32:53.603Z,18.13
2017-02-08T09:33:53.859Z,18.03
2017-02-08T09:34:53.615Z,18.13
2017-02-08T09:35:53.181Z,17.74
2017-02-08T09:36:53.682Z,17.93
2017-02-08T09:37:53.689Z,18.03
2017-02-08T09:38:53.645Z,18.13
2017-02-08T09:39:53.603Z,18.03
2017-02-08T09:40:53.610Z,18.13
2017-02-08T09:41:53.276Z,18.03
2017-02-08T09:42:53.677Z,17.83
2017-02-08T09:43:53.239Z,18.03
2017-02-08T09:44:53.293Z,18.03
2017-02-08T09:45:53.655Z,18.13
2017-02-08T09:46:53.708Z,18.03
2017-02-08T09:47:53.367Z,18.13
2017-02-08T09:48:53.672Z,18.13
2017-02-08T09:49:53.679Z,17.93
2017-02-08T09:50:53.737Z,17.83
2017-02-08T09:51:53.691Z,18.03
2017-02-08T09:52:53.802Z,18.13
2017-02-08T09:53:53.755Z,18.03
2017-02-08T09:54:53.816Z,17.83
2017-02-08T09:55:53.428Z,18.22
2017-02-08T09:56:54.329Z,18.13
2017-02-08T09:57:53.786Z,18.03
2017-02-08T09:58:53.796Z,18.23
2017-02-08T09:59:53.802Z,18.13
2017-02-08T10:00:53.810Z,18.13
2017-02-08T10:01:53.767Z,17.93
2017-02-08T10:02:53.381Z,17.93
2017-02-08T10:03:53.883Z,18.03
2017-02-08T10:04:53.789Z,18.22
2017-02-08T10:05:53.799Z,18.03
2017-02-08T10:06:53.804Z,18.03
2017-02-08T10:07:54.812Z,18.13
2017-02-08T10:08:53.870Z,17.93
2017-02-08T10:09:54.129Z,18.13
2017-02-08T10:10:54.937Z,17.93
2017-02-08T10:11:53.893Z,17.93
2017-02-08T10:12:53.951Z,17.93
2017-02-08T10:13:53.856Z,17.93
2017-02-08T10:14:53.915Z,17.83
2017-02-08T10:15:53.920Z,18.03
2017-02-08T10:16:53.980Z,18.13
2017-02-08T10:17:53.937Z,18.03
2017-02-08T10:18:53.942Z,18.22
2017-02-08T10:19:53.951Z,17.83
2017-02-08T10:20:55.210Z,17.84
2017-02-08T10:21:53.969Z,18.22
2017-02-08T10:22:53.972Z,18.13
2017-02-08T10:23:53.929Z,17.83
2017-02-08T10:24:53.937Z,18.03
2017-02-08T10:25:53.944Z,18.03
2017-02-08T10:26:54.001Z,18.03
2017-02-08T10:27:54.018Z,18.13
2017-02-08T10:28:54.020Z,18.22
2017-02-08T10:29:54.623Z,18.13
2017-02-08T10:30:53.636Z,18.03
2017-02-08T10:31:53.990Z,18.03
2017-02-08T10:32:54.099Z,18.03
2017-02-08T10:33:54.057Z,18.03
2017-02-08T10:34:53.668Z,18.03
2017-02-08T10:35:54.121Z,18.13
2017-02-08T10:36:54.075Z,18.03
2017-02-08T10:37:54.084Z,18.13
2017-02-08T10:38:54.045Z,17.93
2017-02-08T10:39:54.056Z,18.03
2017-02-08T10:40:54.759Z,18.13
2017-02-08T10:41:54.067Z,18.22
2017-02-08T10:42:54.073Z,18.03
2017-02-08T10:43:54.130Z,18.03
2017-02-08T10:44:54.989Z,18.13
2017-02-08T10:45:54.096Z,17.93
2017-02-08T10:46:53.704Z,17.83
2017-02-08T10:47:53.765Z,17.93
2017-02-08T10:48:54.169Z,17.74
2017-02-08T10:49:54.175Z,18.22
2017-02-08T10:50:54.141Z,18.03
2017-02-08T10:51:54.141Z,18.22
2017-02-08T10:52:53.751Z,18.03
2017-02-08T10:53:54.156Z,18.13
2017-02-08T10:54:54.191Z,18.03
2017-02-08T10:55:54.721Z,18.13
2017-02-08T10:56:54.178Z,18.13
2017-02-08T10:57:53.839Z,18.03
2017-02-08T10:58:54.292Z,18.13
2017-02-08T10:59:54.200Z,18.22
2017-02-08T11:00:53.862Z,18.13
2017-02-08T11:01:54.218Z,17.83
2017-02-08T11:02:54.275Z,18.32
2017-02-08T11:03:54.582Z,18.22
2017-02-08T11:04:55.114Z,18.13
2017-02-08T11:05:54.294Z,18.22
2017-02-08T11:06:54.502Z,18.22
2017-02-08T11:07:54.310Z,17.93
2017-02-08T11:08:53.921Z,18.13
2017-02-08T11:09:53.929Z,18.03
2017-02-08T11:10:54.534Z,18.22
2017-02-08T11:11:54.340Z,18.03
2017-02-08T11:12:54.349Z,18.03
2017-02-08T11:13:54.303Z,18.13
2017-02-08T11:14:54.366Z,18.13
2017-02-08T11:15:54.371Z,18.22
2017-02-08T11:16:54.427Z,18.22
2017-02-08T11:17:54.238Z,18.13
2017-02-08T11:18:54.390Z,18.04
2017-02-08T11:19:54.404Z,17.74
2017-02-08T11:20:54.360Z,18.13
2017-02-08T11:21:54.413Z,18.03
2017-02-08T11:22:54.473Z,17.93
2017-02-08T11:23:54.434Z,18.03
2017-02-08T11:24:54.439Z,18.13
2017-02-08T11:25:54.444Z,18.03
2017-02-08T11:26:55.504Z,18.03
2017-02-08T11:27:54.063Z,18.03
2017-02-08T11:28:54.470Z,18.03
2017-02-08T11:29:54.472Z,17.93
2017-02-08T11:30:55.635Z,18.03
2017-02-08T11:31:54.492Z,17.93
2017-02-08T11:32:54.499Z,18.13
2017-02-08T11:33:54.506Z,18.22
2017-02-08T11:34:54.513Z,18.13
2017-02-08T11:35:54.571Z,18.13
2017-02-08T11:36:54.527Z,18.13
2017-02-08T11:37:54.592Z,18.13
2017-02-08T11:38:54.195Z,18.32
2017-02-08T11:39:54.550Z,18.22
2017-02-08T11:40:54.557Z,18.41
2017-02-08T11:41:55.342Z,18.22
2017-02-08T11:42:54.575Z,18.61
2017-02-08T11:44:54.586Z,18.71
2017-02-08T11:45:54.593Z,18.22
2017-02-08T11:46:54.602Z,18.41
2017-02-08T11:47:54.562Z,18.61
2017-02-08T11:48:54.615Z,18.51
2017-02-08T11:49:54.577Z,18.41
2017-02-08T11:50:54.631Z,18.61
2017-02-08T11:51:54.246Z,18.32
2017-02-08T11:52:55.448Z,18.51
2017-02-08T11:53:54.656Z,18.13
2017-02-08T11:54:54.663Z,18.51
2017-02-08T11:55:54.621Z,18.41
2017-02-08T11:56:54.631Z,18.13
2017-02-08T11:57:54.685Z,18.61
2017-02-08T11:58:54.695Z,18.22
2017-02-08T11:59:54.754Z,18.61
2017-02-08T12:00:54.656Z,18.71
2017-02-08T12:01:54.715Z,18.32
2017-02-08T12:02:54.722Z,18.79
2017-02-08T12:03:55.830Z,18.41
2017-02-08T12:04:54.738Z,18.32
2017-02-08T12:05:54.694Z,18.41
2017-02-08T12:06:54.749Z,17.93
2017-02-08T12:07:54.807Z,18.13
2017-02-08T12:08:54.714Z,18.8
2017-02-08T12:09:54.825Z,18.61
2017-02-08T12:10:54.831Z,18.71
2017-02-08T12:11:54.786Z,18.79
2017-02-08T12:12:54.744Z,18.99
2017-02-08T12:13:54.803Z,18.7
2017-02-08T12:14:55.610Z,19.09
2017-02-08T12:15:54.821Z,18.79
2017-02-08T12:16:54.826Z,18.89
2017-02-08T12:17:54.832Z,18.89
2017-02-08T12:18:54.838Z,18.7
2017-02-08T12:19:54.847Z,19.18
2017-02-08T12:20:54.857Z,19.28
2017-02-08T12:21:54.861Z,19.09
2017-02-08T12:22:54.868Z,18.9
2017-02-08T12:23:54.878Z,19
2017-02-08T12:24:54.934Z,19.38
2017-02-08T12:25:55.341Z,19.28
2017-02-08T12:26:54.899Z,19.09
2017-02-08T12:27:54.907Z,19.57
2017-02-08T12:28:54.870Z,19.29
2017-02-08T12:29:54.871Z,19
2017-02-08T12:30:54.928Z,19.68
2017-02-08T12:31:55.190Z,19.57
2017-02-08T12:32:54.994Z,19.86
2017-02-08T12:33:54.951Z,19.96
2017-02-08T12:34:54.959Z,19.86
2017-02-08T12:35:54.965Z,19.67
2017-02-08T12:36:55.229Z,19.57
2017-02-08T12:37:54.929Z,19.76
2017-02-08T12:38:54.986Z,19.28
2017-02-08T12:39:54.995Z,19.67
2017-02-08T12:40:55.001Z,19.67
2017-02-08T12:41:54.611Z,20.06
2017-02-08T12:42:54.966Z,19.57
2017-02-08T12:43:54.974Z,19.76
2017-02-08T12:44:54.980Z,18.89
2017-02-08T12:45:55.036Z,18.89
2017-02-08T12:46:55.044Z,19.09
2017-02-08T12:47:55.007Z,19.09
2017-02-08T12:48:55.059Z,19.09
2017-02-08T12:49:55.852Z,19.09
2017-02-08T12:50:55.073Z,19.09
2017-02-08T12:51:54.684Z,18.99
2017-02-08T12:52:55.145Z,19.09
2017-02-08T12:53:54.700Z,19.38
2017-02-08T12:54:55.101Z,19.38